Time;durP1;ratioP1;P1;durP2;ratioP2;P2;SDS_P1;SDS_P2;PMS_P1;PMS_P2;Temp;Humidity;BMP_temperature;BMP_pressure;BME280_temperature;BME280_humidity;BME280_pressure;Samples;Min_cycle;Max_cycle;Signal;HPM_P1;HPM_P2
2023/09/17 00:00:44;;;;;;;7.42;4.53;;;22.10;94.20;;;;;;951497;148;27427;-75
2023/09/17 00:03:10;;;;;;;4.42;4.10;;;22.10;94.40;;;;;;951072;149;28649;-75
2023/09/17 00:05:36;;;;;;;4.87;4.37;;;22.10;94.40;;;;;;950183;149;27300;-75
2023/09/17 00:08:06;;;;;;;5.08;3.58;;;22.00;94.60;;;;;;951019;149;27231;-75
2023/09/17 00:10:29;;;;;;;4.33;3.92;;;22.00;94.50;;;;;;934074;149;27401;-75
2023/09/17 00:12:56;;;;;;;4.90;4.20;;;22.00;94.40;;;;;;947180;147;27393;-75
2023/09/17 00:15:23;;;;;;;4.55;4.20;;;22.00;94.30;;;;;;933203;149;27338;-75
2023/09/17 00:17:49;;;;;;;4.17;3.87;;;22.00;94.30;;;;;;931287;150;27351;-75
2023/09/17 00:20:16;;;;;;;4.72;4.33;;;21.90;94.10;;;;;;950172;147;27431;-75
2023/09/17 00:22:42;;;;;;;4.37;4.08;;;21.90;94.30;;;;;;934018;149;27797;-75
2023/09/17 00:25:09;;;;;;;4.40;4.10;;;21.80;94.10;;;;;;931256;150;27335;-75
2023/09/17 00:27:36;;;;;;;4.60;4.22;;;21.80;94.30;;;;;;926537;150;27334;-75
2023/09/17 00:30:03;;;;;;;5.65;4.00;;;21.70;94.40;;;;;;945473;147;27852;-75
2023/09/17 00:32:29;;;;;;;4.30;4.00;;;21.60;94.60;;;;;;950960;147;27343;-75
2023/09/17 00:34:55;;;;;;;4.20;3.90;;;21.50;94.70;;;;;;950497;147;28762;-75
2023/09/17 00:37:22;;;;;;;4.47;4.10;;;21.50;94.80;;;;;;942194;149;27333;-76
2023/09/17 00:39:49;;;;;;;5.50;4.28;;;21.40;95.10;;;;;;945226;146;27296;-76
2023/09/17 00:42:15;;;;;;;4.20;3.90;;;21.40;95.40;;;;;;947430;146;27349;-77
2023/09/17 00:44:42;;;;;;;4.62;4.20;;;21.30;95.70;;;;;;946133;146;27280;-76
2023/09/17 00:47:08;;;;;;;4.50;4.10;;;21.20;96.00;;;;;;932465;149;27414;-76
2023/09/17 00:49:35;;;;;;;4.67;4.28;;;21.20;96.30;;;;;;933153;149;27335;-75
2023/09/17 00:52:03;;;;;;;4.78;4.37;;;21.10;96.60;;;;;;950117;148;27364;-76
2023/09/17 00:54:28;;;;;;;4.53;4.22;;;21.00;96.90;;;;;;949433;148;27469;-76
2023/09/17 00:56:55;;;;;;;4.42;4.12;;;21.00;97.30;;;;;;949196;148;27312;-76
2023/09/17 00:59:21;;;;;;;4.50;4.10;;;20.90;97.70;;;;;;949835;148;27771;-76
2023/09/17 01:01:49;;;;;;;4.83;4.42;;;20.90;98.00;;;;;;949423;147;27367;-75
2023/09/17 01:04:14;;;;;;;4.67;4.22;;;20.80;98.20;;;;;;949431;148;27376;-76
2023/09/17 01:06:41;;;;;;;5.33;4.92;;;20.80;98.60;;;;;;949791;148;27338;-76
2023/09/17 01:09:08;;;;;;;5.15;4.65;;;20.80;99.00;;;;;;948007;148;27383;-75
2023/09/17 01:11:34;;;;;;;4.62;4.30;;;20.70;99.30;;;;;;949624;148;27752;-75
2023/09/17 01:14:08;;;;;;;4.30;4.00;;;20.70;99.20;;;;;;949840;148;27359;-76
2023/09/17 01:16:28;;;;;;;4.87;4.37;;;20.70;99.20;;;;;;947624;149;27494;-76
2023/09/17 01:18:54;;;;;;;4.60;4.20;;;20.70;98.90;;;;;;950041;148;27332;-77
2023/09/17 01:21:26;;;;;;;4.65;4.20;;;20.70;99.30;;;;;;948431;147;27343;-76
2023/09/17 01:24:05;;;;;;;5.72;4.60;;;20.60;99.20;;;;;;948524;148;27465;-76
2023/09/17 01:26:32;;;;;;;4.97;4.58;;;20.60;99.40;;;;;;948993;148;27425;-76
2023/09/17 01:28:59;;;;;;;6.62;5.78;;;20.60;99.50;;;;;;949266;148;27337;-76
2023/09/17 01:31:24;;;;;;;4.40;4.10;;;20.60;99.80;;;;;;948685;148;27467;-76
2023/09/17 01:33:51;;;;;;;4.67;4.28;;;20.50;99.80;;;;;;948758;148;27399;-76
2023/09/17 01:36:33;;;;;;;4.95;4.35;;;20.50;99.90;;;;;;949930;148;27360;-76
2023/09/17 01:38:59;;;;;;;5.00;4.62;;;20.50;99.90;;;;;;947135;148;27461;-76
2023/09/17 01:41:27;;;;;;;4.65;4.30;;;20.50;99.90;;;;;;947695;148;27272;-76
2023/09/17 01:43:52;;;;;;;4.95;4.55;;;20.40;99.90;;;;;;949679;148;28720;-75
2023/09/17 01:46:20;;;;;;;6.97;4.47;;;20.40;99.90;;;;;;948616;148;27357;-76
2023/09/17 01:48:46;;;;;;;4.72;4.35;;;20.40;99.90;;;;;;948826;147;27381;-77
2023/09/17 01:51:12;;;;;;;4.95;4.55;;;20.30;99.90;;;;;;950147;148;27398;-76
2023/09/17 01:53:39;;;;;;;5.00;4.60;;;20.30;99.90;;;;;;950454;148;27383;-75
2023/09/17 01:56:05;;;;;;;5.37;4.65;;;20.30;99.90;;;;;;949173;148;27364;-75
2023/09/17 01:58:33;;;;;;;6.00;5.40;;;20.30;99.90;;;;;;949897;148;27876;-75
2023/09/17 02:00:59;;;;;;;5.42;4.92;;;20.30;99.90;;;;;;948345;148;27341;-75
2023/09/17 02:03:26;;;;;;;5.25;4.87;;;20.20;99.90;;;;;;949475;148;27484;-75
2023/09/17 02:05:52;;;;;;;5.10;4.62;;;20.20;99.90;;;;;;950192;148;27345;-75
2023/09/17 02:08:18;;;;;;;5.33;4.92;;;20.20;99.90;;;;;;950182;148;27469;-75
2023/09/17 02:10:45;;;;;;;5.00;4.60;;;20.20;99.90;;;;;;948253;148;27333;-75
2023/09/17 02:13:12;;;;;;;5.12;4.72;;;20.20;99.90;;;;;;949807;148;27441;-75
2023/09/17 02:15:38;;;;;;;5.45;4.95;;;20.20;99.90;;;;;;949238;148;27345;-75
2023/09/17 02:18:05;;;;;;;5.33;4.83;;;20.20;99.90;;;;;;950099;148;27438;-74
2023/09/17 02:20:31;;;;;;;5.53;5.03;;;20.10;99.90;;;;;;949655;148;27355;-74
2023/09/17 02:22:58;;;;;;;6.17;5.60;;;20.10;99.90;;;;;;950191;148;27328;-75
2023/09/17 02:25:24;;;;;;;5.30;4.90;;;20.10;99.90;;;;;;949524;148;28865;-75
2023/09/17 02:27:51;;;;;;;5.55;5.15;;;20.10;99.90;;;;;;950268;148;27360;-74
2023/09/17 02:30:18;;;;;;;7.25;5.85;;;20.10;99.90;;;;;;949362;147;27365;-75
2023/09/17 02:32:44;;;;;;;5.53;4.95;;;20.10;99.90;;;;;;949287;147;27294;-74
2023/09/17 02:35:11;;;;;;;6.08;4.55;;;20.00;99.90;;;;;;948528;148;27362;-74
2023/09/17 02:37:37;;;;;;;5.08;4.58;;;20.00;99.90;;;;;;949594;147;27421;-75
2023/09/17 02:40:08;;;;;;;4.95;4.45;;;20.00;99.90;;;;;;949438;148;27369;-74
2023/09/17 02:42:31;;;;;;;5.12;4.72;;;20.00;99.90;;;;;;949186;148;27398;-75
2023/09/17 02:44:57;;;;;;;5.20;4.60;;;20.10;99.90;;;;;;948411;147;27807;-75
2023/09/17 02:47:24;;;;;;;4.87;4.47;;;20.10;99.90;;;;;;949803;148;27326;-75
2023/09/17 02:49:50;;;;;;;4.90;4.50;;;20.10;99.90;;;;;;941451;150;27349;-75
2023/09/17 02:52:17;;;;;;;4.33;4.03;;;20.10;99.90;;;;;;935460;152;27397;-75
2023/09/17 02:54:44;;;;;;;4.65;4.28;;;20.10;99.90;;;;;;936789;152;27368;-74
2023/09/17 02:57:10;;;;;;;5.42;4.08;;;20.10;99.90;;;;;;934941;149;27428;-75
2023/09/17 02:59:37;;;;;;;4.40;4.00;;;20.20;99.90;;;;;;935614;152;27358;-75
2023/09/17 03:02:03;;;;;;;4.42;4.00;;;20.20;99.90;;;;;;934918;152;27470;-75
2023/09/17 03:04:30;;;;;;;4.40;4.10;;;20.20;99.90;;;;;;934738;151;27398;-75
2023/09/17 03:06:58;;;;;;;4.00;3.70;;;20.20;99.90;;;;;;933493;149;27331;-75
2023/09/17 03:09:24;;;;;;;4.03;3.72;;;20.20;99.90;;;;;;934945;152;27354;-75
2023/09/17 03:11:50;;;;;;;4.60;4.20;;;20.20;99.90;;;;;;934794;152;27350;-75
2023/09/17 03:14:16;;;;;;;4.28;3.77;;;20.30;99.90;;;;;;932880;152;27355;-75
2023/09/17 03:16:43;;;;;;;4.40;4.00;;;20.30;99.90;;;;;;932425;152;27306;-75
2023/09/17 03:19:12;;;;;;;3.95;3.60;;;20.20;99.90;;;;;;931913;152;27423;-75
2023/09/17 03:21:40;;;;;;;3.65;3.35;;;20.30;99.90;;;;;;935624;152;27345;-75
2023/09/17 03:24:03;;;;;;;4.30;3.90;;;20.30;99.90;;;;;;933058;151;27476;-75
2023/09/17 03:26:29;;;;;;;3.85;3.55;;;20.30;99.90;;;;;;934145;149;27346;-75
2023/09/17 03:28:56;;;;;;;4.60;3.72;;;20.30;99.90;;;;;;933390;152;27354;-75
2023/09/17 03:31:23;;;;;;;5.12;3.67;;;20.30;99.90;;;;;;933348;152;27362;-75
2023/09/17 03:33:49;;;;;;;3.80;3.45;;;20.40;99.90;;;;;;933430;152;27502;-75
2023/09/17 03:36:16;;;;;;;4.05;3.70;;;20.40;99.90;;;;;;934695;151;27424;-75
2023/09/17 03:38:42;;;;;;;3.98;3.67;;;20.40;99.90;;;;;;932386;151;27329;-75
2023/09/17 03:41:09;;;;;;;4.03;3.62;;;20.40;99.90;;;;;;933214;152;27431;-75
2023/09/17 03:43:35;;;;;;;4.60;4.20;;;20.40;99.90;;;;;;934146;152;27343;-75
2023/09/17 03:46:03;;;;;;;4.03;3.72;;;20.40;99.90;;;;;;933138;152;27459;-75
2023/09/17 03:48:29;;;;;;;4.37;3.92;;;20.40;99.90;;;;;;932356;151;27315;-75
2023/09/17 03:50:55;;;;;;;4.45;4.15;;;20.50;99.90;;;;;;935798;151;27295;-75
2023/09/17 03:53:22;;;;;;;4.30;3.90;;;20.50;99.90;;;;;;935497;149;27362;-75
2023/09/17 03:55:48;;;;;;;4.33;3.98;;;20.50;99.90;;;;;;932714;151;27362;-75
2023/09/17 03:58:15;;;;;;;4.40;4.10;;;20.50;99.90;;;;;;933613;150;27467;-75
2023/09/17 04:00:43;;;;;;;4.42;3.90;;;20.50;99.90;;;;;;933580;151;27286;-75
2023/09/17 04:03:08;;;;;;;4.22;3.92;;;20.50;99.90;;;;;;946571;150;27470;-75
2023/09/17 04:05:35;;;;;;;3.85;3.55;;;20.50;99.90;;;;;;937769;150;27370;-75
2023/09/17 04:08:02;;;;;;;6.83;3.80;;;20.50;99.90;;;;;;947137;148;27357;-74
2023/09/17 04:10:28;;;;;;;4.28;3.95;;;20.50;99.90;;;;;;962003;146;27377;-74
2023/09/17 04:12:54;;;;;;;4.10;3.80;;;20.50;99.90;;;;;;948774;147;27339;-75
2023/09/17 04:15:21;;;;;;;4.33;3.98;;;20.60;99.90;;;;;;936797;149;27356;-75
2023/09/17 04:17:48;;;;;;;4.05;3.65;;;20.60;99.90;;;;;;935893;149;27525;-72
2023/09/17 04:20:14;;;;;;;4.33;4.03;;;20.60;99.90;;;;;;934938;149;28933;-74
2023/09/17 04:22:41;;;;;;;4.20;3.80;;;20.60;99.90;;;;;;934560;149;27766;-72
2023/09/17 04:25:10;;;;;;;4.17;3.80;;;20.60;99.90;;;;;;934455;149;27342;-73
2023/09/17 04:27:34;;;;;;;3.47;3.27;;;20.60;99.90;;;;;;934001;149;27346;-75
2023/09/17 04:30:01;;;;;;;4.05;3.75;;;20.60;99.90;;;;;;936458;149;27710;-73
2023/09/17 04:32:27;;;;;;;3.65;3.35;;;20.70;99.90;;;;;;935901;150;27455;-73
2023/09/17 04:34:54;;;;;;;4.42;4.05;;;20.70;99.90;;;;;;934178;151;27303;-73
2023/09/17 04:37:21;;;;;;;5.12;4.10;;;20.70;99.90;;;;;;934918;148;27308;-75
2023/09/17 04:39:49;;;;;;;5.17;4.03;;;20.70;99.90;;;;;;945172;149;27345;-73
2023/09/17 04:42:13;;;;;;;4.25;3.72;;;20.70;99.90;;;;;;945562;148;27348;-72
2023/09/17 04:44:40;;;;;;;4.45;4.08;;;20.70;99.90;;;;;;935957;149;27360;-73
2023/09/17 04:47:07;;;;;;;3.77;3.47;;;20.70;99.90;;;;;;939691;148;27431;-75
2023/09/17 04:49:35;;;;;;;4.10;3.80;;;20.70;99.90;;;;;;936105;149;27727;-74
2023/09/17 04:52:00;;;;;;;3.65;3.35;;;20.70;99.90;;;;;;935447;151;27391;-72
2023/09/17 04:54:27;;;;;;;4.25;3.92;;;20.70;99.90;;;;;;929533;153;27995;-73
2023/09/17 04:56:53;;;;;;;4.15;3.75;;;20.70;99.90;;;;;;946550;149;27309;-73
2023/09/17 04:59:20;;;;;;;4.20;3.52;;;20.70;99.90;;;;;;949207;149;27285;-76
2023/09/17 05:01:48;;;;;;;4.20;3.80;;;20.70;99.90;;;;;;933744;151;27369;-74
2023/09/17 05:04:13;;;;;;;3.98;3.60;;;20.70;99.90;;;;;;933234;152;27401;-73
2023/09/17 05:06:42;;;;;;;4.58;4.00;;;20.70;99.90;;;;;;931504;150;27463;-72
2023/09/17 05:09:06;;;;;;;4.05;3.77;;;20.80;99.90;;;;;;938576;151;27455;-72
2023/09/17 05:11:33;;;;;;;3.47;3.15;;;20.80;99.90;;;;;;924752;151;27366;-75
2023/09/17 05:14:01;;;;;;;4.00;3.70;;;20.80;99.90;;;;;;931517;151;27495;-73
2023/09/17 05:16:26;;;;;;;3.67;3.37;;;20.80;99.90;;;;;;928173;151;27260;-72
2023/09/17 05:18:53;;;;;;;3.83;3.22;;;20.80;99.90;;;;;;928036;150;27269;-73
2023/09/17 05:21:19;;;;;;;3.87;3.58;;;20.90;99.90;;;;;;930147;151;27331;-74
2023/09/17 05:23:46;;;;;;;4.10;3.70;;;20.90;99.90;;;;;;931352;151;27512;-73
2023/09/17 05:26:12;;;;;;;3.87;3.58;;;20.90;99.90;;;;;;930213;151;27295;-72
2023/09/17 05:28:39;;;;;;;4.85;3.55;;;21.00;99.90;;;;;;931687;151;27880;-73
2023/09/17 05:31:05;;;;;;;3.95;3.65;;;21.00;99.90;;;;;;931271;151;27353;-74
2023/09/17 05:33:32;;;;;;;4.10;3.70;;;21.10;99.90;;;;;;941281;151;27350;-73
2023/09/17 05:35:59;;;;;;;3.80;3.05;;;21.10;99.90;;;;;;941380;149;27336;-72
2023/09/17 05:38:26;;;;;;;3.92;3.62;;;21.20;99.90;;;;;;948061;149;27302;-74
2023/09/17 05:40:52;;;;;;;3.67;3.42;;;21.30;99.90;;;;;;931432;150;27428;-72
2023/09/17 05:43:18;;;;;;;4.15;3.22;;;21.40;99.90;;;;;;933758;151;27310;-74
2023/09/17 05:45:45;;;;;;;4.15;3.02;;;21.50;99.90;;;;;;932898;152;27362;-73
2023/09/17 05:48:11;;;;;;;3.90;3.60;;;21.70;99.90;;;;;;931357;152;27419;-73
2023/09/17 05:50:38;;;;;;;3.15;2.95;;;21.90;99.90;;;;;;934547;149;27381;-73
2023/09/17 05:53:05;;;;;;;3.58;3.37;;;22.00;99.90;;;;;;938112;149;27439;-73
2023/09/17 05:55:31;;;;;;;3.70;3.37;;;22.10;99.90;;;;;;954965;146;27330;-75
2023/09/17 05:57:58;;;;;;;3.42;3.12;;;22.20;99.90;;;;;;943058;149;27382;-73
2023/09/17 06:00:24;;;;;;;3.95;3.62;;;22.30;99.90;;;;;;938898;149;27321;-73
2023/09/17 06:02:51;;;;;;;3.37;3.10;;;22.40;99.90;;;;;;953301;146;27309;-73
2023/09/17 06:05:18;;;;;;;3.60;3.30;;;22.60;99.90;;;;;;953842;146;27312;-74
2023/09/17 06:07:44;;;;;;;4.12;3.83;;;22.80;99.90;;;;;;949877;149;27437;-74
2023/09/17 06:10:11;;;;;;;3.98;3.67;;;23.00;99.90;;;;;;952018;147;28162;-73
2023/09/17 06:12:37;;;;;;;3.35;3.10;;;23.10;98.90;;;;;;937720;149;27334;-73
2023/09/17 06:15:04;;;;;;;3.55;3.25;;;23.30;98.10;;;;;;936446;149;27410;-73
2023/09/17 06:17:31;;;;;;;4.50;3.47;;;23.40;97.40;;;;;;937009;149;27359;-72
2023/09/17 06:19:57;;;;;;;3.25;3.05;;;23.50;97.30;;;;;;951284;146;27363;-74
2023/09/17 06:22:24;;;;;;;3.62;3.42;;;23.60;96.90;;;;;;938959;149;27323;-73
2023/09/17 06:24:50;;;;;;;3.35;3.05;;;23.60;96.80;;;;;;939289;149;27305;-73
2023/09/17 06:27:17;;;;;;;3.75;3.50;;;23.70;96.50;;;;;;954385;146;27829;-75
2023/09/17 06:29:43;;;;;;;3.52;3.22;;;23.80;96.00;;;;;;936058;148;27383;-73
2023/09/17 06:32:10;;;;;;;3.90;3.60;;;23.90;95.80;;;;;;950919;146;27334;-73
2023/09/17 06:34:37;;;;;;;3.35;3.15;;;23.90;95.50;;;;;;953327;146;27353;-73
2023/09/17 06:37:03;;;;;;;3.45;3.25;;;24.00;95.60;;;;;;936366;149;27317;-75
2023/09/17 06:39:30;;;;;;;3.35;3.15;;;24.10;95.20;;;;;;944373;147;27436;-75
2023/09/17 06:41:56;;;;;;;3.15;2.95;;;24.20;95.20;;;;;;945016;147;27344;-75
2023/09/17 06:44:23;;;;;;;3.50;3.20;;;24.30;95.00;;;;;;946543;146;27876;-75
2023/09/17 06:46:50;;;;;;;3.80;3.50;;;24.40;94.90;;;;;;945777;146;27320;-75
2023/09/17 06:49:16;;;;;;;3.80;3.40;;;24.50;94.60;;;;;;930105;150;27410;-75
2023/09/17 06:51:43;;;;;;;4.03;3.72;;;24.70;94.60;;;;;;950611;147;27446;-75
2023/09/17 06:54:09;;;;;;;3.30;3.10;;;24.80;93.90;;;;;;950580;147;27334;-75
2023/09/17 06:56:36;;;;;;;3.62;3.33;;;24.90;93.50;;;;;;942415;148;27347;-75
2023/09/17 06:59:03;;;;;;;3.20;3.00;;;25.10;94.00;;;;;;952548;147;27447;-75
2023/09/17 07:01:29;;;;;;;2.95;2.75;;;25.40;95.80;;;;;;952485;147;27348;-75
2023/09/17 07:03:56;;;;;;;4.40;3.40;;;25.90;97.90;;;;;;931649;149;27346;-75
2023/09/17 07:06:22;;;;;;;3.17;2.98;;;26.50;98.50;;;;;;932114;149;27441;-75
2023/09/17 07:08:49;;;;;;;3.10;2.90;;;27.30;98.10;;;;;;945698;147;27475;-75
2023/09/17 07:11:15;;;;;;;3.40;3.20;;;28.20;96.20;;;;;;946451;147;27373;-75
2023/09/17 07:13:42;;;;;;;3.02;2.70;;;29.10;94.00;;;;;;951279;147;27318;-75
2023/09/17 07:16:09;;;;;;;2.95;2.75;;;30.00;90.40;;;;;;934103;149;27420;-75
2023/09/17 07:18:35;;;;;;;3.10;2.90;;;30.90;83.60;;;;;;947014;147;27291;-75
2023/09/17 07:21:03;;;;;;;3.08;2.87;;;31.70;80.50;;;;;;942193;148;27427;-75
2023/09/17 07:23:29;;;;;;;2.85;2.65;;;32.40;76.80;;;;;;942978;148;27358;-75
2023/09/17 07:25:55;;;;;;;2.80;2.60;;;33.10;73.80;;;;;;933496;149;27342;-75
2023/09/17 07:28:22;;;;;;;2.77;2.58;;;33.80;71.40;;;;;;926736;150;26297;-75
2023/09/17 07:30:48;;;;;;;2.77;2.60;;;34.40;70.10;;;;;;943836;149;26232;-76
2023/09/17 07:33:15;;;;;;;2.87;2.67;;;34.90;67.40;;;;;;950895;147;26326;-76
2023/09/17 07:35:41;;;;;;;2.60;2.50;;;35.40;65.70;;;;;;933606;149;26358;-75
2023/09/17 07:38:08;;;;;;;4.75;2.50;;;35.90;64.20;;;;;;932991;149;26240;-75
2023/09/17 07:40:35;;;;;;;3.60;2.70;;;36.40;62.70;;;;;;931319;150;26235;-76
2023/09/17 07:43:03;;;;;;;2.80;2.60;;;36.80;60.90;;;;;;950766;147;26273;-76
2023/09/17 07:45:28;;;;;;;3.12;2.83;;;37.20;59.60;;;;;;950728;147;26736;-75
2023/09/17 07:47:54;;;;;;;2.85;2.70;;;37.50;58.60;;;;;;951665;146;26315;-76
2023/09/17 07:50:21;;;;;;;4.62;3.45;;;37.80;58.00;;;;;;946723;147;26224;-76
2023/09/17 07:52:47;;;;;;;2.98;2.77;;;38.10;57.30;;;;;;932141;150;26177;-76
2023/09/17 07:55:16;;;;;;;2.70;2.52;;;38.40;56.80;;;;;;923798;150;26392;-76
2023/09/17 07:57:41;;;;;;;3.12;2.85;;;38.70;56.20;;;;;;948854;147;26234;-76
2023/09/17 08:00:08;;;;;;;3.15;2.95;;;39.10;55.40;;;;;;950362;147;26214;-75
2023/09/17 08:02:34;;;;;;;3.30;3.00;;;39.30;54.30;;;;;;943553;146;26221;-76
2023/09/17 08:05:00;;;;;;;3.00;2.80;;;39.60;53.50;;;;;;942010;147;26296;-76
2023/09/17 08:07:27;;;;;;;2.98;2.72;;;39.80;53.10;;;;;;939432;147;26223;-76
2023/09/17 08:09:54;;;;;;;3.20;2.90;;;40.00;52.70;;;;;;937989;148;26181;-76
2023/09/17 08:12:20;;;;;;;2.80;2.60;;;40.30;52.20;;;;;;920117;150;26265;-76
2023/09/17 08:14:47;;;;;;;3.33;2.45;;;40.60;51.70;;;;;;942478;146;26331;-76
2023/09/17 08:17:13;;;;;;;2.52;2.40;;;40.90;51.30;;;;;;942194;147;26342;-76
2023/09/17 08:19:40;;;;;;;3.02;2.10;;;41.20;50.80;;;;;;938766;147;26144;-76
2023/09/17 08:22:07;;;;;;;2.60;2.50;;;41.60;50.30;;;;;;940299;148;26284;-76
2023/09/17 08:24:33;;;;;;;2.70;2.50;;;41.90;49.70;;;;;;941884;148;26218;-76
2023/09/17 08:27:00;;;;;;;3.98;2.60;;;42.30;49.00;;;;;;940647;147;26337;-76
2023/09/17 08:29:26;;;;;;;2.60;2.45;;;42.60;48.30;;;;;;941562;148;26309;-76
2023/09/17 08:31:53;;;;;;;2.62;2.42;;;42.90;47.60;;;;;;942663;148;26218;-76
2023/09/17 08:34:20;;;;;;;2.50;2.30;;;43.10;46.90;;;;;;942581;147;26283;-76
2023/09/17 08:36:46;;;;;;;3.10;2.90;;;43.30;46.50;;;;;;941047;147;26737;-76
2023/09/17 08:39:13;;;;;;;2.72;2.52;;;43.50;45.70;;;;;;940969;147;26353;-75
2023/09/17 08:41:40;;;;;;;2.52;2.33;;;43.70;45.40;;;;;;940410;148;26291;-75
2023/09/17 08:44:06;;;;;;;2.47;2.10;;;43.80;45.00;;;;;;940333;148;26271;-75
2023/09/17 08:46:32;;;;;;;2.70;2.50;;;43.90;44.50;;;;;;941159;148;26252;-75
2023/09/17 08:48:59;;;;;;;2.22;2.12;;;44.10;44.10;;;;;;939954;147;26314;-75
2023/09/17 08:51:26;;;;;;;2.75;2.55;;;44.20;43.40;;;;;;944226;146;26624;-75
2023/09/17 08:54:11;;;;;;;2.55;2.33;;;44.30;43.80;;;;;;943839;148;26339;-75
2023/09/17 08:56:37;;;;;;;2.80;2.60;;;44.30;42.60;;;;;;937079;148;26229;-75
2023/09/17 08:59:03;;;;;;;2.58;2.25;;;44.40;42.60;;;;;;938278;149;26385;-75
2023/09/17 09:01:30;;;;;;;2.30;2.20;;;44.40;42.20;;;;;;930373;149;27881;-75
2023/09/17 09:03:57;;;;;;;2.22;2.12;;;44.40;41.80;;;;;;954992;146;26327;-75
2023/09/17 09:06:23;;;;;;;3.20;2.40;;;44.40;41.70;;;;;;955306;146;26220;-75
2023/09/17 09:08:51;;;;;;;2.50;2.30;;;44.50;41.60;;;;;;951241;146;26325;-75
2023/09/17 09:11:16;;;;;;;2.05;1.95;;;44.50;41.40;;;;;;938268;149;26377;-75
2023/09/17 09:13:44;;;;;;;2.40;2.20;;;44.60;41.20;;;;;;937857;149;26287;-75
2023/09/17 09:16:10;;;;;;;3.17;2.05;;;44.70;41.00;;;;;;938051;149;26212;-75
2023/09/17 09:18:36;;;;;;;2.17;2.08;;;44.70;40.70;;;;;;937655;149;26301;-75
2023/09/17 09:21:03;;;;;;;2.22;2.02;;;44.70;40.10;;;;;;955856;146;26255;-75
2023/09/17 09:23:29;;;;;;;2.08;1.95;;;44.70;39.80;;;;;;936518;149;26256;-75
2023/09/17 09:25:56;;;;;;;2.40;2.20;;;44.70;39.50;;;;;;938626;149;26217;-75
2023/09/17 09:28:22;;;;;;;2.30;2.08;;;44.70;39.40;;;;;;937941;149;26258;-75
2023/09/17 09:30:49;;;;;;;2.12;2.00;;;44.60;39.10;;;;;;938497;148;26332;-75
2023/09/17 09:33:20;;;;;;;2.60;2.40;;;44.50;39.10;;;;;;950977;146;26353;-75
2023/09/17 09:35:42;;;;;;;3.08;2.25;;;44.30;38.90;;;;;;948148;146;26334;-75
2023/09/17 09:38:09;;;;;;;2.42;2.22;;;44.10;38.90;;;;;;931450;150;26295;-75
2023/09/17 09:40:37;;;;;;;2.50;2.30;;;43.90;39.00;;;;;;932444;150;26269;-75
2023/09/17 09:43:02;;;;;;;2.58;2.37;;;43.80;39.30;;;;;;953468;146;26236;-75
2023/09/17 09:45:29;;;;;;;2.75;2.47;;;43.60;39.10;;;;;;950794;146;26313;-75
2023/09/17 09:47:56;;;;;;;2.60;2.40;;;43.40;38.80;;;;;;933739;149;26249;-75
2023/09/17 09:50:25;;;;;;;2.22;2.12;;;43.10;38.90;;;;;;945521;147;26330;-75
2023/09/17 09:52:51;;;;;;;2.70;2.45;;;42.80;39.20;;;;;;951478;147;26248;-75
2023/09/17 09:55:18;;;;;;;3.37;2.87;;;42.40;39.00;;;;;;951126;147;26235;-75
2023/09/17 09:57:44;;;;;;;2.70;2.50;;;42.10;39.00;;;;;;942201;149;26333;-75
2023/09/17 10:00:12;;;;;;;2.85;2.58;;;41.60;38.90;;;;;;948151;147;26249;-75
2023/09/17 10:02:37;;;;;;;2.87;2.67;;;41.10;39.00;;;;;;943145;149;26291;-75
2023/09/17 10:05:04;;;;;;;2.50;2.30;;;40.50;39.00;;;;;;939527;149;26242;-75
2023/09/17 10:07:31;;;;;;;2.75;2.60;;;40.00;39.50;;;;;;947964;146;26276;-75
2023/09/17 10:09:57;;;;;;;3.47;2.67;;;39.40;40.00;;;;;;943479;148;26387;-75
2023/09/17 10:12:24;;;;;;;3.15;2.80;;;38.90;40.50;;;;;;950114;147;26268;-75
2023/09/17 10:14:50;;;;;;;2.80;2.50;;;38.40;41.00;;;;;;944998;149;26370;-75
2023/09/17 10:17:17;;;;;;;2.30;2.10;;;38.00;41.10;;;;;;946122;148;26237;-75
2023/09/17 10:19:44;;;;;;;3.75;2.22;;;37.60;41.20;;;;;;945149;149;26214;-75
2023/09/17 10:22:10;;;;;;;2.70;2.40;;;37.30;41.60;;;;;;945763;148;26247;-75
2023/09/17 10:24:37;;;;;;;2.67;2.37;;;37.00;42.00;;;;;;945696;149;26278;-75
2023/09/17 10:27:03;;;;;;;3.85;2.33;;;36.70;42.20;;;;;;945249;148;26179;-75
2023/09/17 10:29:30;;;;;;;2.30;2.10;;;36.50;42.50;;;;;;944920;148;26224;-75
2023/09/17 10:31:56;;;;;;;2.55;2.20;;;36.30;42.60;;;;;;945494;149;27136;-75
2023/09/17 10:34:23;;;;;;;2.60;2.40;;;36.20;42.80;;;;;;944525;148;27430;-75
2023/09/17 10:36:50;;;;;;;2.40;2.20;;;36.00;43.10;;;;;;945667;149;26964;-75
2023/09/17 10:39:17;;;;;;;2.27;2.15;;;35.90;43.40;;;;;;932759;150;27320;-75
2023/09/17 10:41:44;;;;;;;2.90;2.30;;;35.70;43.60;;;;;;945934;147;27443;-75
2023/09/17 10:44:13;;;;;;;2.37;2.17;;;35.70;43.90;;;;;;945860;147;27278;-74
2023/09/17 10:46:40;;;;;;;3.40;2.75;;;35.60;43.80;;;;;;947746;148;27383;-75
2023/09/17 10:49:06;;;;;;;2.92;2.47;;;35.50;43.90;;;;;;948829;148;27293;-75
2023/09/17 10:51:32;;;;;;;4.17;2.20;;;35.40;43.90;;;;;;949037;148;27386;-75
2023/09/17 10:53:59;;;;;;;2.55;2.27;;;35.30;43.90;;;;;;949389;148;27361;-75
2023/09/17 10:56:25;;;;;;;2.87;2.37;;;35.20;44.20;;;;;;942638;148;27405;-75
2023/09/17 10:58:52;;;;;;;6.15;2.75;;;35.10;44.30;;;;;;931989;152;28330;-75
2023/09/17 11:01:19;;;;;;;2.80;2.20;;;35.10;44.50;;;;;;932714;151;27337;-75
2023/09/17 11:03:45;;;;;;;2.60;2.40;;;35.00;44.40;;;;;;931604;151;27336;-75
2023/09/17 11:06:16;;;;;;;3.92;2.50;;;34.90;43.60;;;;;;933811;151;27447;-75
2023/09/17 11:08:41;;;;;;;2.47;2.27;;;34.90;44.30;;;;;;933238;151;27340;-75
2023/09/17 11:11:08;;;;;;;3.42;2.58;;;34.80;44.50;;;;;;931828;151;27357;-75
2023/09/17 11:13:34;;;;;;;3.95;2.50;;;34.70;44.50;;;;;;933517;151;27335;-75
2023/09/17 11:16:01;;;;;;;4.12;2.30;;;34.50;44.70;;;;;;933198;151;27439;-72
2023/09/17 11:18:27;;;;;;;4.45;2.50;;;34.40;45.00;;;;;;932827;151;27392;-72
2023/09/17 11:21:04;;;;;;;2.40;2.25;;;34.30;45.10;;;;;;932196;152;27362;-72
2023/09/17 11:23:35;;;;;;;2.80;2.40;;;34.20;45.30;;;;;;933734;151;27375;-74
2023/09/17 11:26:02;;;;;;;2.98;2.27;;;34.10;45.40;;;;;;931813;152;27869;-73
2023/09/17 11:28:29;;;;;;;2.87;2.08;;;34.00;45.60;;;;;;932527;152;27339;-73
2023/09/17 11:30:58;;;;;;;3.37;2.52;;;34.00;45.60;;;;;;933361;151;27355;-72
2023/09/17 11:33:24;;;;;;;2.98;2.27;;;33.90;45.70;;;;;;934682;151;27358;-75
2023/09/17 11:35:51;;;;;;;3.80;2.40;;;33.80;45.70;;;;;;934014;150;27432;-74
2023/09/17 11:38:17;;;;;;;2.42;2.17;;;33.80;46.00;;;;;;934000;151;27390;-72
2023/09/17 11:40:44;;;;;;;3.02;2.50;;;33.80;46.10;;;;;;933987;152;27265;-72
2023/09/17 11:43:10;;;;;;;2.60;2.33;;;33.70;46.10;;;;;;933689;151;27312;-75
2023/09/17 11:45:38;;;;;;;3.30;2.20;;;33.70;46.30;;;;;;933971;151;27448;-72
2023/09/17 11:48:05;;;;;;;2.60;2.40;;;33.70;47.10;;;;;;935098;151;27462;-73
2023/09/17 11:50:30;;;;;;;3.27;2.40;;;33.70;46.60;;;;;;931415;150;27400;-74
2023/09/17 11:53:06;;;;;;;2.40;2.20;;;33.70;46.50;;;;;;933433;152;27464;-73
2023/09/17 11:55:36;;;;;;;2.67;2.27;;;33.70;46.60;;;;;;932192;152;27412;-75
2023/09/17 11:58:17;;;;;;;2.40;2.20;;;33.60;46.50;;;;;;932581;149;27445;-72
2023/09/17 12:00:43;;;;;;;3.35;2.50;;;33.60;46.50;;;;;;932887;150;27416;-73
2023/09/17 12:03:11;;;;;;;2.65;2.37;;;33.60;46.60;;;;;;935631;149;27981;-74
2023/09/17 12:05:37;;;;;;;2.45;2.20;;;33.60;46.70;;;;;;940181;149;27392;-72
2023/09/17 12:08:03;;;;;;;3.08;2.65;;;33.50;46.80;;;;;;938691;149;27342;-74
2023/09/17 12:10:52;;;;;;;3.33;2.50;;;33.50;46.80;;;;;;933660;149;27406;-73
2023/09/17 12:13:11;;;;;;;2.70;2.08;;;33.50;47.00;;;;;;933185;150;27269;-74
2023/09/17 12:15:38;;;;;;;2.15;1.98;;;33.50;47.00;;;;;;948608;147;27397;-73
2023/09/17 12:18:04;;;;;;;2.52;2.10;;;33.50;47.00;;;;;;945647;147;27264;-72
2023/09/17 12:20:56;;;;;;;3.05;2.45;;;33.50;47.00;;;;;;949192;147;27313;-74
2023/09/17 12:23:32;;;;;;;3.67;2.40;;;33.40;47.40;;;;;;930575;149;27439;-74
2023/09/17 12:25:47;;;;;;;2.17;1.98;;;33.40;46.90;;;;;;934695;149;27347;-73
2023/09/17 12:28:14;;;;;;;2.62;2.12;;;33.40;47.00;;;;;;948888;147;27334;-73
2023/09/17 12:30:40;;;;;;;2.95;2.30;;;33.40;47.10;;;;;;950231;147;27985;-73
2023/09/17 12:33:07;;;;;;;2.55;2.05;;;33.40;47.30;;;;;;934426;149;27708;-74
2023/09/17 12:35:35;;;;;;;3.62;2.22;;;33.40;47.30;;;;;;933987;149;27446;-72
2023/09/17 12:38:00;;;;;;;3.77;2.45;;;33.30;47.40;;;;;;933469;149;27336;-73
2023/09/17 12:40:27;;;;;;;3.17;2.33;;;33.40;47.50;;;;;;934318;149;27339;-73
2023/09/17 12:42:53;;;;;;;2.70;2.17;;;33.40;47.60;;;;;;935003;149;27354;-76
2023/09/17 12:45:20;;;;;;;4.55;2.25;;;33.40;47.50;;;;;;934538;149;27364;-74